Time;durP1;ratioP1;P1;durP2;ratioP2;P2;SDS_P1;SDS_P2;PMS_P1;PMS_P2;Temp;Humidity;BMP_temperature;BMP_pressure;BME280_temperature;BME280_humidity;BME280_pressure;Samples;Min_cycle;Max_cycle;Signal;HPM_P1;HPM_P2
2023/07/09 00:01:17;;;;;;;10.10;4.30;;;;;;;26.48;46.28;100167.56;6068571;23;20029;-89
2023/07/09 00:03:46;;;;;;;11.63;5.38;;;;;;;26.45;46.76;100166.16;6068328;23;20113;-88
2023/07/09 00:06:13;;;;;;;8.20;4.38;;;;;;;26.44;46.78;100169.94;6069722;23;20342;-90
2023/07/09 00:08:47;;;;;;;7.30;4.15;;;;;;;26.37;47.56;100169.22;6068629;23;20336;-90
2023/07/09 00:11:15;;;;;;;6.57;4.40;;;;;;;26.34;47.17;100173.22;6067316;23;22131;-90
2023/07/09 00:13:42;;;;;;;8.65;4.97;;;;;;;26.35;47.15;100171.31;6068622;23;20080;-89
2023/07/09 00:16:15;;;;;;;7.97;4.18;;;;;;;26.30;47.57;100182.91;6069042;23;20026;-91
2023/07/09 00:18:41;;;;;;;;;;;;;;;26.02;48.58;100177.22;6069466;23;20065;-89
2023/07/09 00:21:08;;;;;;;10.82;4.85;;;;;;;26.24;47.45;100172.94;6090493;23;19924;-89
2023/07/09 00:23:38;;;;;;;7.35;4.28;;;;;;;26.27;47.57;100182.53;6092842;23;20022;-90
2023/07/09 00:26:09;;;;;;;8.00;4.97;;;;;;;26.17;47.38;100169.47;6046339;23;20046;-89
2023/07/09 00:28:36;;;;;;;7.47;4.83;;;;;;;26.19;47.50;100173.63;6069747;23;20028;-89
2023/07/09 00:31:03;;;;;;;9.35;5.10;;;;;;;26.23;47.34;100184.06;6020654;23;20976;-89
2023/07/09 00:33:32;;;;;;;7.88;4.90;;;;;;;26.16;47.35;100176.81;6044288;23;20097;-89
2023/07/09 00:36:04;;;;;;;6.85;4.00;;;;;;;26.14;47.44;100178.94;6044841;23;20022;-89
2023/07/09 00:38:38;;;;;;;7.97;4.63;;;;;;;26.12;47.72;100177.50;6021489;23;20025;-88
2023/07/09 00:41:17;;;;;;;10.40;4.65;;;;;;;26.07;48.13;100186.34;6069561;23;20410;-89
2023/07/09 00:43:46;;;;;;;9.38;4.75;;;;;;;26.08;47.81;100181.72;6092911;23;20018;-88
2023/07/09 00:46:18;;;;;;;12.02;3.92;;;;;;;26.01;47.93;100181.84;6068897;23;20026;-88
2023/07/09 00:48:47;;;;;;;7.97;4.75;;;;;;;26.04;47.66;100183.28;6068537;23;20077;-88
2023/07/09 00:51:17;;;;;;;7.60;4.88;;;;;;;26.00;47.23;100182.88;6067824;23;20026;-89
2023/07/09 00:53:45;;;;;;;8.13;4.90;;;;;;;25.98;47.17;100183.13;6045259;23;20101;-88
2023/07/09 00:56:20;;;;;;;7.38;4.32;;;;;;;25.90;47.40;100188.88;6069458;23;20030;-88
2023/07/09 00:58:47;;;;;;;10.23;5.22;;;;;;;25.93;47.25;100182.16;6091158;23;20056;-89
2023/07/09 01:01:18;;;;;;;8.35;4.70;;;;;;;25.89;47.38;100191.81;6067669;23;20033;-89
2023/07/09 01:03:47;;;;;;;10.27;4.60;;;;;;;25.93;47.44;100193.03;6044236;23;20025;-89
2023/07/09 01:06:18;;;;;;;9.77;4.55;;;;;;;25.90;47.57;100188.88;6068859;23;20022;-88
2023/07/09 01:08:53;;;;;;;7.85;4.45;;;;;;;25.89;47.37;100186.38;6044408;23;20080;-89
2023/07/09 01:11:22;;;;;;;8.48;4.88;;;;;;;25.86;47.89;100192.28;6021870;23;20430;-88
2023/07/09 01:13:56;;;;;;;11.23;5.00;;;;;;;25.84;47.90;100191.63;6067739;23;20024;-88
2023/07/09 01:16:27;;;;;;;8.35;4.47;;;;;;;25.86;48.02;100204.00;6044430;23;20077;-89
2023/07/09 01:18:54;;;;;;;9.07;4.35;;;;;;;25.84;47.63;100197.09;6043979;23;20024;-88
2023/07/09 01:21:21;;;;;;;8.05;4.88;;;;;;;25.83;47.83;100198.16;6045392;23;20029;-89
2023/07/09 01:23:49;;;;;;;7.28;4.88;;;;;;;25.81;47.97;100211.97;6069408;23;20061;-89
2023/07/09 01:26:20;;;;;;;9.65;4.45;;;;;;;25.80;47.93;100210.31;6070055;23;20073;-88
2023/07/09 01:28:48;;;;;;;10.40;4.97;;;;;;;25.79;47.64;100205.91;6046336;23;20022;-89
2023/07/09 01:31:16;;;;;;;7.10;4.60;;;;;;;25.74;48.01;100201.16;6069677;23;20028;-89
2023/07/09 01:33:47;;;;;;;7.55;5.20;;;;;;;25.71;48.16;100198.06;6046406;23;20018;-90
2023/07/09 01:36:16;;;;;;;8.15;5.05;;;;;;;25.71;48.20;100198.06;6023315;23;20021;-89
2023/07/09 01:38:43;;;;;;;8.65;4.72;;;;;;;25.67;48.14;100200.41;6046835;23;20022;-89
2023/07/09 01:41:13;;;;;;;9.95;4.57;;;;;;;25.61;48.04;100200.47;6046325;23;20044;-89
2023/07/09 01:43:41;;;;;;;8.05;5.07;;;;;;;25.54;48.90;100203.25;6047241;23;20033;-88
2023/07/09 01:46:09;;;;;;;7.28;4.53;;;;;;;25.46;50.72;100209.00;6046874;23;20033;-88
2023/07/09 01:48:42;;;;;;;10.82;5.35;;;;;;;25.42;51.09;100207.78;6046171;23;20088;-88
2023/07/09 01:51:11;;;;;;;7.80;5.00;;;;;;;25.42;50.82;100205.91;6023088;23;20025;-88
2023/07/09 01:53:39;;;;;;;8.43;4.63;;;;;;;25.39;50.40;100203.63;6046207;23;20026;-88
2023/07/09 01:56:07;;;;;;;8.27;4.47;;;;;;;25.40;49.91;100199.84;6046135;23;20089;-89
2023/07/09 01:58:34;;;;;;;14.85;4.80;;;;;;;25.42;49.53;100207.78;6045197;23;20048;-88
2023/07/09 02:01:01;;;;;;;7.68;4.43;;;;;;;25.40;49.46;100212.63;6093476;23;20021;-89
2023/07/09 02:03:28;;;;;;;7.50;4.35;;;;;;;25.37;49.14;100213.91;6069667;23;20141;-88
2023/07/09 02:05:57;;;;;;;9.93;4.60;;;;;;;25.37;49.41;100222.06;6046438;23;21198;-88
2023/07/09 02:08:24;;;;;;;7.07;4.75;;;;;;;25.32;49.46;100219.19;6070102;23;20389;-88
2023/07/09 02:10:51;;;;;;;9.52;4.38;;;;;;;25.28;49.38;100215.22;6045231;23;20077;-89
2023/07/09 02:13:18;;;;;;;9.23;4.53;;;;;;;25.30;49.16;100213.94;6069575;23;20054;-88
2023/07/09 02:15:45;;;;;;;11.77;5.50;;;;;;;25.27;49.91;100224.44;6046442;23;20030;-88
2023/07/09 02:18:13;;;;;;;7.70;4.55;;;;;;;25.24;50.15;100231.16;6045814;23;20053;-89
2023/07/09 02:20:41;;;;;;;10.23;5.00;;;;;;;25.21;49.59;100223.44;6044998;23;20033;-89
2023/07/09 02:23:08;;;;;;;9.43;4.82;;;;;;;25.24;48.94;100223.00;6069965;23;20021;-88
2023/07/09 02:25:35;;;;;;;10.05;5.13;;;;;;;25.20;48.79;100221.78;6069825;23;20033;-88
2023/07/09 02:28:02;;;;;;;9.43;4.50;;;;;;;25.23;48.57;100226.75;6045537;23;20026;-89
2023/07/09 02:30:28;;;;;;;7.75;5.03;;;;;;;25.21;48.78;100222.59;6046200;23;20024;-89
2023/07/09 02:32:55;;;;;;;9.30;4.78;;;;;;;25.20;49.00;100220.94;6069961;23;20077;-88
2023/07/09 02:35:22;;;;;;;7.70;4.82;;;;;;;25.16;49.20;100219.69;6045911;23;20097;-88
2023/07/09 02:37:49;;;;;;;9.50;4.70;;;;;;;25.15;48.91;100223.47;6022229;23;20379;-88
2023/07/09 02:40:16;;;;;;;8.82;4.85;;;;;;;25.16;49.09;100225.13;6092830;23;20371;-89
2023/07/09 02:42:43;;;;;;;6.20;4.35;;;;;;;25.11;49.17;100217.63;6069213;23;20331;-90
2023/07/09 02:45:11;;;;;;;12.10;5.68;;;;;;;25.12;49.09;100219.31;6069905;23;20025;-89
2023/07/09 02:47:38;;;;;;;12.70;4.95;;;;;;;25.10;49.09;100215.97;6069357;23;20388;-88
2023/07/09 02:50:06;;;;;;;6.88;4.43;;;;;;;25.11;49.04;100223.06;6069209;23;20045;-89
2023/07/09 02:52:32;;;;;;;7.20;4.15;;;;;;;25.07;49.04;100227.28;6070911;23;20434;-89
2023/07/09 02:54:59;;;;;;;7.22;4.68;;;;;;;25.03;49.07;100223.34;6046265;23;20517;-89
2023/07/09 02:57:26;;;;;;;10.77;4.70;;;;;;;25.01;48.95;100230.88;6046059;23;20030;-90
2023/07/09 02:59:53;;;;;;;8.65;5.45;;;;;;;25.00;49.11;100229.22;6069003;23;20026;-90
2023/07/09 03:02:20;;;;;;;8.27;5.00;;;;;;;25.00;49.06;100229.22;6044920;23;20026;-89
2023/07/09 03:04:47;;;;;;;7.78;4.15;;;;;;;24.96;49.27;100226.13;6069414;23;20104;-89
2023/07/09 03:07:14;;;;;;;9.95;5.25;;;;;;;24.96;48.73;100230.72;6070186;23;20025;-89
2023/07/09 03:09:41;;;;;;;6.68;4.80;;;;;;;24.97;49.01;100235.09;6091875;23;20037;-89
2023/07/09 03:12:08;;;;;;;9.40;4.90;;;;;;;24.96;48.93;100234.28;6093721;23;20026;-88
2023/07/09 03:14:36;;;;;;;9.55;4.68;;;;;;;24.95;49.22;100237.22;6045821;23;20029;-89
2023/07/09 03:17:03;;;;;;;8.73;5.65;;;;;;;24.93;49.08;100229.25;6069571;23;20029;-88
2023/07/09 03:19:30;;;;;;;7.93;4.70;;;;;;;24.87;49.08;100233.69;6068694;23;20075;-88
2023/07/09 03:21:56;;;;;;;9.90;4.97;;;;;;;24.85;49.37;100233.09;6040645;23;20523;-88
2023/07/09 03:24:23;;;;;;;8.43;4.85;;;;;;;24.84;49.39;100234.16;6069349;23;20022;-89
2023/07/09 03:26:50;;;;;;;8.90;5.18;;;;;;;24.84;49.40;100234.16;6046425;23;20022;-88
2023/07/09 03:29:17;;;;;;;10.18;5.28;;;;;;;24.79;49.44;100228.53;6091710;23;20108;-88
2023/07/09 03:31:44;;;;;;;8.02;5.28;;;;;;;24.77;49.26;100230.63;6069215;23;20026;-88
2023/07/09 03:34:11;;;;;;;7.80;4.72;;;;;;;24.75;49.38;100237.34;6069881;23;20025;-89
2023/07/09 03:36:38;;;;;;;8.88;4.88;;;;;;;24.74;49.54;100238.41;6045558;23;20085;-89
2023/07/09 03:39:05;;;;;;;8.63;5.07;;;;;;;24.75;49.34;100248.22;6066981;23;20021;-88
2023/07/09 03:41:32;;;;;;;7.78;4.95;;;;;;;24.75;49.38;100237.34;6093353;23;20073;-87
2023/07/09 03:43:59;;;;;;;10.32;4.88;;;;;;;24.75;49.41;100246.31;6092291;23;20025;-88
2023/07/09 03:46:26;;;;;;;8.60;4.93;;;;;;;24.75;49.37;100249.03;6069233;23;20022;-88
2023/07/09 03:48:53;;;;;;;9.95;4.80;;;;;;;24.73;49.48;100243.00;6042415;23;20334;-87
2023/07/09 03:51:20;;;;;;;9.40;5.05;;;;;;;24.75;49.54;100250.91;6091914;23;20111;-88
2023/07/09 03:53:47;;;;;;;8.27;4.97;;;;;;;24.78;49.55;100250.47;6045472;23;20084;-88
2023/07/09 03:56:13;;;;;;;7.93;4.82;;;;;;;24.81;49.93;100256.31;6022456;23;20014;-89
2023/07/09 03:58:40;;;;;;;9.10;5.60;;;;;;;24.91;49.97;100258.56;6020634;23;20018;-89
2023/07/09 04:01:07;;;;;;;10.05;5.10;;;;;;;25.10;49.77;100254.84;6044086;23;20021;-89
2023/07/09 04:03:34;;;;;;;7.97;4.82;;;;;;;25.36;49.50;100253.00;6068424;23;20021;-89
2023/07/09 04:06:01;;;;;;;6.93;5.18;;;;;;;25.76;48.89;100245.28;6068373;23;20097;-88
2023/07/09 04:08:28;;;;;;;8.70;5.50;;;;;;;26.17;47.48;100253.84;6070063;23;20504;-89
2023/07/09 04:10:59;;;;;;;7.88;5.28;;;;;;;26.54;45.95;100260.13;6067447;23;20026;-88
2023/07/09 04:13:27;;;;;;;7.80;5.75;;;;;;;26.85;45.58;100264.50;6068895;23;20093;-88
2023/07/09 04:15:55;;;;;;;11.73;5.90;;;;;;;26.95;45.13;100263.94;6046333;23;20068;-88
2023/07/09 04:18:22;;;;;;;10.68;6.25;;;;;;;26.78;45.33;100265.66;6045213;23;20097;-88
2023/07/09 04:20:50;;;;;;;10.10;6.10;;;;;;;26.61;45.40;100279.94;6091987;23;20018;-88
2023/07/09 04:23:17;;;;;;;12.45;5.78;;;;;;;26.41;45.88;100274.72;6045175;23;20450;-88
2023/07/09 04:25:44;;;;;;;9.38;5.88;;;;;;;26.29;46.00;100268.38;6068950;23;20326;-88
2023/07/09 04:28:11;;;;;;;8.02;5.47;;;;;;;26.18;45.99;100275.41;6069761;23;20026;-88
2023/07/09 04:30:38;;;;;;;9.27;5.70;;;;;;;26.11;46.16;100277.38;6091049;23;20096;-88
2023/07/09 04:33:05;;;;;;;7.75;5.65;;;;;;;26.00;46.31;100275.41;6044653;23;20022;-88
2023/07/09 04:35:32;;;;;;;9.43;5.47;;;;;;;25.98;46.23;100280.25;6021789;23;20029;-88
2023/07/09 04:37:59;;;;;;;7.63;5.28;;;;;;;25.89;46.31;100287.03;6067685;23;20461;-88
2023/07/09 04:40:26;;;;;;;9.93;5.80;;;;;;;25.87;46.48;100283.72;6066590;23;20101;-89
2023/07/09 04:42:52;;;;;;;11.23;5.07;;;;;;;25.86;46.45;100279.34;6092943;23;20025;-88
2023/07/09 04:45:19;;;;;;;10.05;5.30;;;;;;;25.81;46.79;100279.97;6068001;23;20026;-88
2023/07/09 04:47:46;;;;;;;10.32;5.70;;;;;;;25.83;46.64;100283.31;6068649;23;20025;-88
2023/07/09 04:50:14;;;;;;;12.77;5.25;;;;;;;25.87;47.07;100289.16;6043466;23;20462;-88
2023/07/09 04:52:40;;;;;;;8.00;5.22;;;;;;;25.82;47.06;100286.25;6044655;23;20097;-88
2023/07/09 04:55:08;;;;;;;10.70;6.15;;;;;;;25.78;46.92;100291.31;6093049;23;20049;-88
2023/07/09 04:57:35;;;;;;;8.38;5.45;;;;;;;25.72;46.63;100295.78;6046151;23;20077;-88
2023/07/09 05:00:05;;;;;;;10.40;5.43;;;;;;;25.66;47.13;100299.38;6068853;23;20026;-89
2023/07/09 05:02:32;;;;;;;11.32;5.90;;;;;;;25.55;47.14;100292.78;6070358;23;20109;-88
2023/07/09 05:04:59;;;;;;;9.05;5.82;;;;;;;25.54;47.35;100293.84;6070875;23;20017;-89
2023/07/09 05:07:27;;;;;;;7.78;5.30;;;;;;;25.49;47.22;100285.53;6071160;23;20026;-89
2023/07/09 05:09:54;;;;;;;12.93;5.95;;;;;;;25.51;47.47;100293.44;6045293;23;20088;-89
2023/07/09 05:12:20;;;;;;;13.05;5.57;;;;;;;25.46;47.48;100290.56;6070757;23;20054;-90
2023/07/09 05:14:47;;;;;;;13.70;6.30;;;;;;;25.43;47.48;100296.44;6070173;23;20074;-89
2023/07/09 05:17:14;;;;;;;14.40;6.22;;;;;;;25.40;47.76;100295.00;6070774;23;20021;-89
2023/07/09 05:19:41;;;;;;;10.73;5.57;;;;;;;25.33;47.67;100291.50;6070685;23;20014;-88
2023/07/09 05:22:08;;;;;;;10.40;5.90;;;;;;;25.36;47.64;100293.78;6046368;23;20085;-88
2023/07/09 05:24:35;;;;;;;9.85;5.50;;;;;;;25.36;48.00;100296.50;6046383;23;20022;-88
2023/07/09 05:27:02;;;;;;;10.27;5.72;;;;;;;25.34;47.94;100293.19;6046972;23;20029;-88
2023/07/09 05:29:28;;;;;;;12.13;6.35;;;;;;;25.33;48.01;100291.50;6067904;23;20033;-89
2023/07/09 05:31:55;;;;;;;11.18;6.28;;;;;;;25.32;48.27;100285.25;6069891;23;20030;-90
2023/07/09 05:34:22;;;;;;;13.15;6.20;;;;;;;25.33;48.16;100288.78;6093879;23;20017;-91
2023/07/09 05:36:49;;;;;;;9.43;5.85;;;;;;;25.35;48.30;100289.41;6069526;23;20410;-89
2023/07/09 05:39:16;;;;;;;12.10;6.28;;;;;;;25.37;48.39;100283.75;6069010;23;20498;-93
2023/07/09 05:41:43;;;;;;;10.77;6.25;;;;;;;25.34;48.57;100280.41;6045387;23;20026;-93
2023/07/09 05:44:10;;;;;;;11.02;5.93;;;;;;;25.34;48.51;100287.75;6045824;23;20084;-91
2023/07/09 05:46:37;;;;;;;11.23;6.05;;;;;;;25.38;48.57;100296.28;6094318;23;20010;-92
2023/07/09 05:49:05;;;;;;;11.43;6.50;;;;;;;25.40;48.60;100291.47;6021046;23;20093;-92
2023/07/09 05:51:33;;;;;;;12.43;6.95;;;;;;;25.38;48.83;100291.66;6045576;23;20022;-93
2023/07/09 05:54:00;;;;;;;9.40;6.28;;;;;;;25.43;48.76;100286.41;6046283;23;20331;-90
2023/07/09 05:56:26;;;;;;;10.63;5.70;;;;;;;25.45;48.76;100287.00;6046354;23;20021;-93
2023/07/09 05:58:53;;;;;;;9.32;6.10;;;;;;;25.51;48.86;100288.81;6044891;23;20040;-94
2023/07/09 06:01:20;;;;;;;11.68;5.75;;;;;;;25.54;48.89;100287.56;6068750;23;20021;-91
2023/07/09 06:03:47;;;;;;;12.43;6.22;;;;;;;25.55;49.00;100294.66;6069439;23;20018;-91
2023/07/09 06:06:15;;;;;;;9.43;6.20;;;;;;;25.53;48.74;100291.34;6045224;23;20021;-92
2023/07/09 06:08:42;;;;;;;10.50;6.47;;;;;;;25.55;48.77;100287.34;6058712;23;20029;-92
2023/07/09 06:11:08;;;;;;;12.93;6.75;;;;;;;25.55;48.38;100294.66;6067999;23;20081;-91
2023/07/09 06:13:35;;;;;;;13.40;7.00;;;;;;;25.56;48.27;100297.16;6046045;23;20453;-92
2023/07/09 06:16:02;;;;;;;8.85;5.72;;;;;;;25.56;48.10;100296.31;6022739;23;20072;-92
2023/07/09 06:18:30;;;;;;;11.55;6.18;;;;;;;25.55;48.03;100289.22;6045760;23;20024;-92
2023/07/09 06:21:00;;;;;;;9.55;6.43;;;;;;;25.56;48.06;100285.44;6092378;23;20497;-93
2023/07/09 06:23:27;;;;;;;9.70;6.40;;;;;;;25.58;48.17;100285.22;6069324;23;20022;-92
2023/07/09 06:25:54;;;;;;;9.88;6.18;;;;;;;25.64;48.52;100292.50;6046372;23;20026;-94
2023/07/09 06:28:23;;;;;;;11.35;6.35;;;;;;;25.70;48.42;100292.44;6069090;23;20021;-92
2023/07/09 06:30:50;;;;;;;11.30;6.30;;;;;;;25.72;48.45;100298.50;6044427;23;20022;-92
2023/07/09 06:33:19;;;;;;;10.85;5.78;;;;;;;25.77;48.64;100303.22;6069459;23;20030;-91
2023/07/09 06:35:51;;;;;;;12.30;6.22;;;;;;;25.76;48.45;100299.69;6046339;23;20021;-92
2023/07/09 06:38:18;;;;;;;12.38;6.22;;;;;;;25.82;48.43;100302.56;6093010;23;20030;-93
2023/07/09 06:40:46;;;;;;;11.15;6.53;;;;;;;25.85;48.72;100303.00;6045018;23;20021;-93
2023/07/09 06:43:12;;;;;;;11.18;6.30;;;;;;;25.87;48.12;100302.75;6068752;23;20088;-92
2023/07/09 06:45:58;;;;;;;11.73;6.88;;;;;;;25.84;48.00;100304.00;6046093;23;20028;-92
2023/07/09 06:48:27;;;;;;;11.05;6.63;;;;;;;25.92;48.06;100292.03;6045337;23;20024;-93
2023/07/09 06:50:55;;;;;;;10.77;6.53;;;;;;;25.96;48.38;100293.25;6068586;23;20394;-93
2023/07/09 06:53:22;;;;;;;12.23;6.50;;;;;;;25.97;48.13;100298.44;6045697;23;20022;-93
2023/07/09 06:55:49;;;;;;;11.50;6.45;;;;;;;26.02;48.53;100297.78;6045984;23;20493;-91
2023/07/09 06:58:17;;;;;;;10.60;6.50;;;;;;;26.03;48.30;100302.19;6069387;23;20026;-92
2023/07/09 07:00:44;;;;;;;12.60;6.30;;;;;;;26.05;48.75;100302.75;6043827;23;20026;-92
2023/07/09 07:03:11;;;;;;;8.73;6.28;;;;;;;26.09;49.05;100300.44;6045667;23;20323;-89
2023/07/09 07:05:43;;;;;;;10.13;6.07;;;;;;;26.09;48.88;100298.53;6045549;23;20461;-90
2023/07/09 07:08:10;;;;;;;11.70;6.57;;;;;;;26.15;48.88;100296.78;6045549;23;20049;-91
2023/07/09 07:10:37;;;;;;;12.40;6.38;;;;;;;26.14;48.76;100295.97;6067350;23;20056;-89
2023/07/09 07:13:08;;;;;;;12.80;6.68;;;;;;;26.19;48.66;100296.13;6046101;23;20026;-90
2023/07/09 07:15:36;;;;;;;17.45;7.18;;;;;;;26.24;48.52;100297.34;6045264;23;20018;-90
2023/07/09 07:18:03;;;;;;;10.90;6.13;;;;;;;26.27;48.73;100288.72;6044784;23;20081;-89
2023/07/09 07:20:30;;;;;;;10.40;6.22;;;;;;;26.28;48.66;100288.50;6067451;23;20033;-91
2023/07/09 07:22:57;;;;;;;13.20;6.10;;;;;;;26.32;48.34;100286.13;6021058;23;20438;-92
2023/07/09 07:25:25;;;;;;;9.55;5.97;;;;;;;26.38;48.55;100287.94;6045579;23;20017;-90
2023/07/09 07:27:51;;;;;;;9.23;5.88;;;;;;;26.39;48.58;100292.34;6092747;23;20448;-90
2023/07/09 07:30:18;;;;;;;10.30;5.85;;;;;;;26.42;48.69;100287.25;6067703;23;20021;-91
2023/07/09 07:32:47;;;;;;;10.18;6.50;;;;;;;26.45;48.71;100290.59;6069255;23;20034;-88
2023/07/09 07:35:14;;;;;;;10.05;6.40;;;;;;;26.48;48.56;100290.13;6045706;23;20513;-91
2023/07/09 07:37:41;;;;;;;10.60;6.18;;;;;;;26.49;48.44;100286.34;6044994;23;20030;-90
2023/07/09 07:40:09;;;;;;;11.25;6.28;;;;;;;26.52;48.61;100283.16;6043484;23;20404;-91
2023/07/09 07:42:36;;;;;;;12.75;6.45;;;;;;;26.53;48.73;100274.78;6069199;23;20018;-90
2023/07/09 07:45:03;;;;;;;11.85;6.72;;;;;;;26.56;48.92;100270.75;6044696;23;20068;-90
2023/07/09 07:47:31;;;;;;;13.00;6.50;;;;;;;26.64;49.03;100273.19;6068733;23;20046;-90
2023/07/09 07:49:57;;;;;;;12.15;6.50;;;;;;;26.67;48.50;100274.63;6067776;23;20024;-90
2023/07/09 07:52:25;;;;;;;12.23;6.70;;;;;;;26.71;48.74;100273.91;6068604;23;20065;-91
2023/07/09 07:54:52;;;;;;;10.20;7.00;;;;;;;26.71;48.79;100268.47;6069052;23;20029;-92
2023/07/09 07:57:19;;;;;;;12.55;6.28;;;;;;;26.79;49.22;100275.47;6069299;23;20045;-91
2023/07/09 07:59:46;;;;;;;14.77;6.75;;;;;;;26.77;48.65;100270.28;6043144;23;20025;-91
2023/07/09 08:02:14;;;;;;;9.85;6.47;;;;;;;26.85;48.68;100277.28;6069603;23;20030;-91
2023/07/09 08:04:41;;;;;;;11.70;6.70;;;;;;;26.83;48.94;100265.78;6044359;23;20041;-90
2023/07/09 08:07:09;;;;;;;12.10;6.65;;;;;;;26.92;49.18;100266.28;6044969;23;20105;-92
2023/07/09 08:09:36;;;;;;;8.13;5.60;;;;;;;26.94;48.76;100266.88;6044235;23;20022;-90
2023/07/09 08:12:09;;;;;;;11.75;7.03;;;;;;;26.98;48.99;100265.34;6045615;23;20342;-93
2023/07/09 08:14:41;;;;;;;9.82;6.05;;;;;;;26.99;48.84;100264.28;6046276;23;20080;-92
2023/07/09 08:17:08;;;;;;;10.50;6.15;;;;;;;27.05;49.16;100261.47;6044194;23;20030;-91
2023/07/09 08:20:04;;;;;;;10.32;6.90;;;;;;;26.97;48.92;100260.94;6068504;23;20018;-91
2023/07/09 08:22:31;;;;;;;11.57;6.75;;;;;;;27.10;48.65;100254.50;6014887;23;20033;-93
2023/07/09 08:24:58;;;;;;;10.45;6.15;;;;;;;27.12;48.61;100261.38;6068402;23;20438;-91
2023/07/09 08:27:25;;;;;;;10.77;6.80;;;;;;;27.13;48.29;100251.28;6068606;23;20081;-91
2023/07/09 08:29:52;;;;;;;11.50;5.15;;;;;;;27.15;48.25;100260.06;6044272;23;20335;-90
2023/07/09 08:32:18;;;;;;;9.27;5.50;;;;;;;27.18;47.69;100257.72;6068712;23;20030;-91
2023/07/09 08:34:45;;;;;;;10.88;6.13;;;;;;;27.21;46.02;100249.06;6020856;23;20461;-90
2023/07/09 08:37:32;;;;;;;9.00;5.78;;;;;;;27.25;46.06;100244.00;6047789;23;20044;-94
2023/07/09 08:39:59;;;;;;;8.68;5.85;;;;;;;27.28;46.29;100244.34;6020476;23;20053;-90
2023/07/09 08:42:31;;;;;;;10.25;6.00;;;;;;;27.31;46.34;100244.94;6044966;23;20026;-93
2023/07/09 08:45:32;;;;;;;8.82;5.63;;;;;;;27.33;46.48;100240.09;6092201;23;20175;-91
2023/07/09 08:48:36;;;;;;;10.05;6.03;;;;;;;27.34;46.19;100236.28;6067347;23;20716;-91
2023/07/09 08:51:17;;;;;;;18.15;6.68;;;;;;;27.38;46.10;100251.94;6063574;23;20021;-91
2023/07/09 08:53:53;;;;;;;10.38;5.28;;;;;;;27.48;45.75;100243.19;6067985;23;20367;-91
2023/07/09 08:56:21;;;;;;;9.02;5.57;;;;;;;27.54;46.26;100252.28;6067614;23;20442;-91
2023/07/09 08:58:50;;;;;;;10.88;5.78;;;;;;;27.58;46.13;100248.88;6067872;23;20071;-91
2023/07/09 09:01:23;;;;;;;9.05;5.32;;;;;;;27.63;46.24;100246.25;6068477;23;20465;-92
2023/07/09 09:03:52;;;;;;;9.30;5.72;;;;;;;27.70;45.41;100246.94;6044677;23;20022;-92
2023/07/09 09:06:21;;;;;;;8.25;5.60;;;;;;;27.74;44.88;100235.56;6044394;23;20029;-92
2023/07/09 09:09:04;;;;;;;12.75;6.88;;;;;;;27.74;45.11;100235.56;6044197;23;20026;-91
2023/07/09 09:11:44;;;;;;;9.05;5.70;;;;;;;27.77;45.41;100235.91;6067810;23;20387;-90
2023/07/09 09:14:18;;;;;;;11.98;5.63;;;;;;;27.78;44.81;100236.72;6067639;23;20037;-90
2023/07/09 09:16:46;;;;;;;10.18;6.10;;;;;;;27.84;44.79;100233.91;6092028;23;20441;-90
2023/07/09 09:19:21;;;;;;;10.65;5.78;;;;;;;27.86;44.73;100231.78;6043427;23;20030;-90
2023/07/09 09:21:50;;;;;;;8.52;5.20;;;;;;;27.89;44.31;100231.28;6091102;23;20029;-91
2023/07/09 09:24:44;;;;;;;12.07;6.80;;;;;;;27.91;44.23;100231.03;6091551;23;20022;-90
2023/07/09 09:27:10;;;;;;;11.18;6.07;;;;;;;27.94;44.01;100227.84;6028356;23;20468;-90
2023/07/09 09:29:37;;;;;;;8.73;5.65;;;;;;;27.98;44.00;100231.75;6044327;23;20030;-91
2023/07/09 09:32:19;;;;;;;11.05;5.78;;;;;;;27.96;43.50;100222.97;6020801;23;20425;-90
2023/07/09 09:34:45;;;;;;;12.43;6.32;;;;;;;28.07;43.19;100226.75;6067736;23;20405;-90
2023/07/09 09:37:12;;;;;;;10.23;5.88;;;;;;;28.10;42.50;100212.59;6067426;23;20049;-91
2023/07/09 09:39:39;;;;;;;10.98;6.47;;;;;;;28.11;43.21;100226.03;6043356;23;20022;-91
2023/07/09 09:42:10;;;;;;;11.98;5.22;;;;;;;28.13;42.69;100215.66;6067998;23;20551;-91
2023/07/09 09:44:43;;;;;;;12.03;5.20;;;;;;;28.16;42.71;100214.34;6022010;23;20026;-90
2023/07/09 09:47:11;;;;;;;8.93;5.03;;;;;;;28.23;42.24;100216.97;6045970;23;20420;-91
2023/07/09 09:49:42;;;;;;;12.60;7.75;;;;;;;28.20;42.40;100218.28;6021235;23;20081;-91
2023/07/09 09:52:18;;;;;;;9.77;5.25;;;;;;;28.23;41.59;100222.41;6069825;23;20093;-92
2023/07/09 09:54:52;;;;;;;8.63;5.30;;;;;;;28.27;42.18;100223.59;6093162;23;20026;-91
2023/07/09 09:57:21;;;;;;;9.73;5.15;;;;;;;28.31;42.52;100228.31;6069054;23;20449;-91
2023/07/09 09:59:48;;;;;;;11.70;5.30;;;;;;;28.33;41.79;100228.09;6089543;23;20394;-90
2023/07/09 10:02:24;;;;;;;9.15;4.55;;;;;;;28.32;41.77;100219.06;6069534;23;20033;-91
2023/07/09 10:04:51;;;;;;;11.23;5.03;;;;;;;28.39;41.28;100213.44;6070315;23;20442;-90
2023/07/09 10:07:31;;;;;;;12.43;5.03;;;;;;;28.36;41.54;100216.66;6069201;23;20331;-91
2023/07/09 10:09:59;;;;;;;10.35;4.68;;;;;;;28.44;41.47;100218.19;6092271;23;20017;-92
2023/07/09 10:12:38;;;;;;;9.80;4.40;;;;;;;28.42;40.99;100217.59;6045379;23;20077;-91
2023/07/09 10:15:22;;;;;;;9.52;4.57;;;;;;;28.41;41.11;100215.94;6045017;23;20018;-91
2023/07/09 10:17:56;;;;;;;9.48;4.30;;;;;;;28.48;41.15;100208.47;6068278;23;20125;-92
2023/07/09 10:20:30;;;;;;;10.32;4.63;;;;;;;28.53;41.12;100211.28;6021515;23;20053;-91
2023/07/09 10:23:20;;;;;;;8.32;4.50;;;;;;;28.52;41.15;100202.28;6045370;23;20018;-91
2023/07/09 10:26:15;;;;;;;7.65;4.47;;;;;;;28.52;41.11;100196.81;6044829;23;20022;-92
2023/07/09 10:29:02;;;;;;;9.02;4.50;;;;;;;28.61;40.77;100205.41;6068476;23;20033;-91
2023/07/09 10:31:58;;;;;;;10.98;4.20;;;;;;;28.56;40.35;100197.13;6045521;23;20024;-92
2023/07/09 10:34:32;;;;;;;7.47;3.85;;;;;;;28.64;40.23;100183.06;6044834;23;20374;-90
2023/07/09 10:37:27;;;;;;;9.30;4.10;;;;;;;28.65;39.98;100184.75;6069576;23;20344;-91
2023/07/09 10:39:57;;;;;;;8.38;4.40;;;;;;;28.74;40.50;100185.16;6043711;23;20018;-90
2023/07/09 10:42:32;;;;;;;11.60;3.83;;;;;;;28.72;40.23;100179.91;6044838;23;20024;-92
2023/07/09 10:45:09;;;;;;;8.50;4.78;;;;;;;28.76;39.86;100177.53;6045006;23;20446;-91
2023/07/09 10:47:46;;;;;;;8.15;5.80;;;;;;;28.79;39.87;100168.84;6021811;23;20022;-92
2023/07/09 10:50:30;;;;;;;7.30;4.00;;;;;;;28.77;39.96;100170.97;6068540;23;20026;-91
2023/07/09 10:53:12;;;;;;;8.70;4.15;;;;;;;28.87;40.18;100176.63;6068846;23;20014;-92
2023/07/09 10:55:44;;;;;;;9.68;4.30;;;;;;;28.91;39.85;100164.13;6045291;23;20018;-91
2023/07/09 10:58:26;;;;;;;6.75;3.72;;;;;;;28.91;39.25;100160.56;6045117;23;20026;-91
2023/07/09 11:00:53;;;;;;;7.18;4.00;;;;;;;28.93;39.38;100158.41;6043824;23;20014;-91
2023/07/09 11:03:40;;;;;;;7.07;3.60;;;;;;;28.93;39.44;100166.63;6067901;23;20411;-90
2023/07/09 11:06:26;;;;;;;8.95;4.03;;;;;;;28.93;38.63;100164.69;6043024;23;20030;-89
2023/07/09 11:08:55;;;;;;;8.10;3.63;;;;;;;28.99;38.29;100160.97;6065370;23;20030;-89
2023/07/09 11:11:29;;;;;;;10.68;4.28;;;;;;;29.00;38.30;100156.31;6041735;23;20387;-88
2023/07/09 11:14:00;;;;;;;6.95;3.38;;;;;;;29.03;37.90;100152.25;6089943;23;20025;-89
2023/07/09 11:16:38;;;;;;;6.82;3.70;;;;;;;29.07;37.65;100153.44;6067527;23;20402;-88
2023/07/09 11:19:10;;;;;;;14.05;4.50;;;;;;;29.12;36.43;100143.41;6065850;23;20030;-88
2023/07/09 11:21:58;;;;;;;8.68;3.83;;;;;;;29.11;36.28;100146.41;6065432;23;20458;-89
2023/07/09 11:24:46;;;;;;;6.53;3.40;;;;;;;29.14;36.46;100143.19;6063548;23;20116;-88
2023/07/09 11:27:21;;;;;;;5.35;3.80;;;;;;;29.19;36.71;100143.25;6065932;23;20946;-88
2023/07/09 11:29:58;;;;;;;10.20;3.63;;;;;;;29.20;36.80;100134.78;6089822;23;20097;-89
2023/07/09 11:32:27;;;;;;;8.27;4.07;;;;;;;29.28;36.70;100144.47;6087596;23;20025;-87
2023/07/09 11:34:54;;;;;;;7.63;4.65;;;;;;;29.30;36.26;100139.56;6065883;23;20105;-89